Diamond Center, Iowa
Current Conditions -  °F | °C
As of 11:55 PM on Wednesday 22 Oct 2014 (Local Time) from KCKP Reporting Station
Moderate Rain Moderate Rain  
Wind Chill: 15°   Ceiling: 4800
Heat Index: 15°   Visibility: 10mi
Dew Point: 15°   Wind: 6mph
Humidity: 100%   Direction: 160°SSE
Pressure: 30.02"   Gusts: NA
Location:  42.6502°N, 95.4454°W
Report Text: KCKP 230455Z AUTO 16005KT 10SM RA SCT021 SCT030 OVC048 15/15 A3002 RMK AO2 P0003 T01450145
Loading
Personal Weather Stations






























Interactive Weather Map
Tropical Storm Tracking
New forecast layout! Learn more

10-Day Weather Forecast

Advertisements
Track Severe Weather on mobile